SBFZ/FOR METAR and TAF weather

Enter ICAO airport designator
Station Type Date Time Source
SBFZ METAR 2022/01/26 08:00 UTC NOAA

SBFZ 260800Z 10008KT 9999 BKN020 27/24 Q1010


Station Type Date Time Source
SBFZ Decoded METAR 2022/01/26 08:00 UTC NOAA

Fortaleza / pinto Martins , Brazil (SBFZ) 03-47S 038-32W 25M
Jan 26, 2022 - 03:00 AM EST / 2022.01.26 0800 UTC
Wind: from the E (100 degrees) at 9 MPH (8 KT):0
Visibility: greater than 7 mile(s):0
Sky conditions: mostly cloudy
Temperature: 80 F (27 C)
Dew Point: 75 F (24 C)
Relative Humidity: 83%
Pressure (altimeter): 29.83 in. Hg (1010 hPa)
ob: SBFZ 260800Z 10008KT 9999 BKN020 27/24 Q1010
cycle: 8

Station Type Date Time Source
SBFZ TAF 2022/01/26 06:18 UTC NOAA

TAF SBFZ 260415Z 2606/2706 09005KT 9999 SCT020 TN26/2608Z TX30/2617Z
BECMG 2613/2615 10015KT
BECMG 2621/2623 09005KT
RMK PHQ

Example: see airport list